sensor_id;sensor_type;location;lat;lon;timestamp;temperature;humidity
38221;DHT22;24023;51.280;7.148;2023-04-01T00:00:11;9.5;91.2
38221;DHT22;24023;51.280;7.148;2023-04-01T00:05:07;9.5;91.2
38221;DHT22;24023;51.280;7.148;2023-04-01T00:10:10;9.5;91.2
38221;DHT22;24023;51.280;7.148;2023-04-01T00:15:11;9.6;90.9
38221;DHT22;24023;51.280;7.148;2023-04-01T00:20:09;9.6;90.9
38221;DHT22;24023;51.280;7.148;2023-04-01T00:25:06;9.3;91.7
38221;DHT22;24023;51.280;7.148;2023-04-01T00:30:10;9.3;91.7
38221;DHT22;24023;51.280;7.148;2023-04-01T00:35:07;9.3;91.7
38221;DHT22;24023;51.280;7.148;2023-04-01T00:40:23;9.2;91.9
38221;DHT22;24023;51.280;7.148;2023-04-01T00:45:30;9.2;91.9
38221;DHT22;24023;51.280;7.148;2023-04-01T00:50:08;9.4;91.6
38221;DHT22;24023;51.280;7.148;2023-04-01T00:55:11;9.4;91.6
38221;DHT22;24023;51.280;7.148;2023-04-01T01:00:11;9.4;91.3
38221;DHT22;24023;51.280;7.148;2023-04-01T01:05:07;9.4;91.3
38221;DHT22;24023;51.280;7.148;2023-04-01T01:10:13;9.4;91.3
38221;DHT22;24023;51.280;7.148;2023-04-01T01:15:13;9.4;91.4
38221;DHT22;24023;51.280;7.148;2023-04-01T01:20:26;9.4;91.4
38221;DHT22;24023;51.280;7.148;2023-04-01T01:25:16;9.3;91.2
38221;DHT22;24023;51.280;7.148;2023-04-01T01:30:15;9.3;91.2
38221;DHT22;24023;51.280;7.148;2023-04-01T01:35:15;9.3;91.2
38221;DHT22;24023;51.280;7.148;2023-04-01T01:40:11;9.4;91.1
38221;DHT22;24023;51.280;7.148;2023-04-01T01:45:11;9.4;91.1
38221;DHT22;24023;51.280;7.148;2023-04-01T01:50:09;9.4;91.2
38221;DHT22;24023;51.280;7.148;2023-04-01T01:55:25;9.4;91.2
38221;DHT22;24023;51.280;7.148;2023-04-01T02:00:15;9.4;91.2
38221;DHT22;24023;51.280;7.148;2023-04-01T02:05:08;9.1;91.5
38221;DHT22;24023;51.280;7.148;2023-04-01T02:10:09;9.1;91.5
38221;DHT22;24023;51.280;7.148;2023-04-01T02:15:10;9.3;91.6
38221;DHT22;24023;51.280;7.148;2023-04-01T02:20:12;9.3;91.6
38221;DHT22;24023;51.280;7.148;2023-04-01T02:25:09;9.3;91.6
38221;DHT22;24023;51.280;7.148;2023-04-01T02:30:10;9.3;91.6
38221;DHT22;24023;51.280;7.148;2023-04-01T02:35:09;9.3;91.6
38221;DHT22;24023;51.280;7.148;2023-04-01T02:40:10;9.4;91.7
38221;DHT22;24023;51.280;7.148;2023-04-01T02:45:12;9.4;91.7
38221;DHT22;24023;51.280;7.148;2023-04-01T02:50:09;9.0;91.9
38221;DHT22;24023;51.280;7.148;2023-04-01T02:55:08;9.0;91.9
38221;DHT22;24023;51.280;7.148;2023-04-01T03:00:13;9.0;91.9
38221;DHT22;24023;51.280;7.148;2023-04-01T03:05:08;9.0;92.7
38221;DHT22;24023;51.280;7.148;2023-04-01T03:10:09;9.0;92.7
38221;DHT22;24023;51.280;7.148;2023-04-01T03:15:10;9.0;92.4
38221;DHT22;24023;51.280;7.148;2023-04-01T03:20:10;9.0;92.4
38221;DHT22;24023;51.280;7.148;2023-04-01T03:25:09;9.0;92.4
38221;DHT22;24023;51.280;7.148;2023-04-01T03:30:10;9.0;92.7
38221;DHT22;24023;51.280;7.148;2023-04-01T03:35:08;9.0;92.7
38221;DHT22;24023;51.280;7.148;2023-04-01T03:40:09;8.9;91.9
38221;DHT22;24023;51.280;7.148;2023-04-01T03:45:10;8.9;91.9
38221;DHT22;24023;51.280;7.148;2023-04-01T03:50:09;8.9;91.9
38221;DHT22;24023;51.280;7.148;2023-04-01T03:55:07;9.1;91.8
38221;DHT22;24023;51.280;7.148;2023-04-01T04:00:12;9.1;91.8
38221;DHT22;24023;51.280;7.148;2023-04-01T04:05:07;9.0;92.1
38221;DHT22;24023;51.280;7.148;2023-04-01T04:10:08;9.0;92.1
38221;DHT22;24023;51.280;7.148;2023-04-01T04:15:08;9.0;92.1
38221;DHT22;24023;51.280;7.148;2023-04-01T04:20:09;9.1;92.0
38221;DHT22;24023;51.280;7.148;2023-04-01T04:25:08;9.1;92.0
38221;DHT22;24023;51.280;7.148;2023-04-01T04:30:10;9.1;92.2
38221;DHT22;24023;51.280;7.148;2023-04-01T04:35:07;9.1;92.2
38221;DHT22;24023;51.280;7.148;2023-04-01T04:40:08;9.2;92.0
38221;DHT22;24023;51.280;7.148;2023-04-01T04:45:10;9.2;92.0
38221;DHT22;24023;51.280;7.148;2023-04-01T04:50:08;9.2;92.0
38221;DHT22;24023;51.280;7.148;2023-04-01T04:55:07;9.1;92.1
38221;DHT22;24023;51.280;7.148;2023-04-01T05:00:12;9.1;92.1
38221;DHT22;24023;51.280;7.148;2023-04-01T05:05:07;9.3;92.1
38221;DHT22;24023;51.280;7.148;2023-04-01T05:10:09;9.3;92.1
38221;DHT22;24023;51.280;7.148;2023-04-01T05:15:08;9.3;92.1
38221;DHT22;24023;51.280;7.148;2023-04-01T05:20:08;9.2;92.2
38221;DHT22;24023;51.280;7.148;2023-04-01T05:25:07;9.2;92.2
38221;DHT22;24023;51.280;7.148;2023-04-01T05:30:10;9.3;92.2
38221;DHT22;24023;51.280;7.148;2023-04-01T05:35:07;9.3;92.2
38221;DHT22;24023;51.280;7.148;2023-04-01T05:40:09;9.3;92.2
38221;DHT22;24023;51.280;7.148;2023-04-01T05:45:10;9.2;92.3
38221;DHT22;24023;51.280;7.148;2023-04-01T05:50:09;9.2;92.3
38221;DHT22;24023;51.280;7.148;2023-04-01T05:55:08;9.3;92.1
38221;DHT22;24023;51.280;7.148;2023-04-01T06:00:12;9.3;92.1
38221;DHT22;24023;51.280;7.148;2023-04-01T06:05:13;9.4;92.2
38221;DHT22;24023;51.280;7.148;2023-04-01T06:10:12;9.4;92.2
38221;DHT22;24023;51.280;7.148;2023-04-01T06:15:16;9.4;92.2
38221;DHT22;24023;51.280;7.148;2023-04-01T06:20:15;9.3;92.3
38221;DHT22;24023;51.280;7.148;2023-04-01T06:25:19;9.3;92.3
38221;DHT22;24023;51.280;7.148;2023-04-01T06:30:24;9.4;92.3
38221;DHT22;24023;51.280;7.148;2023-04-01T06:35:17;9.4;92.3
38221;DHT22;24023;51.280;7.148;2023-04-01T06:40:23;9.4;92.3
38221;DHT22;24023;51.280;7.148;2023-04-01T06:45:22;9.4;92.4
38221;DHT22;24023;51.280;7.148;2023-04-01T06:50:17;9.4;92.4
38221;DHT22;24023;51.280;7.148;2023-04-01T06:55:21;9.5;92.2
38221;DHT22;24023;51.280;7.148;2023-04-01T07:05:07;9.5;92.2
38221;DHT22;24023;51.280;7.148;2023-04-01T07:10:14;9.5;92.2
38221;DHT22;24023;51.280;7.148;2023-04-01T07:15:16;9.5;92.2
38221;DHT22;24023;51.280;7.148;2023-04-01T07:20:15;9.3;92.0
38221;DHT22;24023;51.280;7.148;2023-04-01T07:25:13;9.3;92.0
38221;DHT22;24023;51.280;7.148;2023-04-01T07:30:15;9.3;92.0
38221;DHT22;24023;51.280;7.148;2023-04-01T07:35:14;9.4;92.6
38221;DHT22;24023;51.280;7.148;2023-04-01T07:40:19;9.4;92.6
38221;DHT22;24023;51.280;7.148;2023-04-01T07:45:17;9.5;92.3
38221;DHT22;24023;51.280;7.148;2023-04-01T07:50:16;9.5;92.3
38221;DHT22;24023;51.280;7.148;2023-04-01T07:55:10;9.5;92.5
38221;DHT22;24023;51.280;7.148;2023-04-01T08:00:14;9.5;92.5
38221;DHT22;24023;51.280;7.148;2023-04-01T08:05:16;9.5;92.5
38221;DHT22;24023;51.280;7.148;2023-04-01T08:10:13;9.7;92.3
38221;DHT22;24023;51.280;7.148;2023-04-01T08:15:15;9.7;92.3
38221;DHT22;24023;51.280;7.148;2023-04-01T08:20:18;9.6;92.6
38221;DHT22;24023;51.280;7.148;2023-04-01T08:25:15;9.6;92.6
38221;DHT22;24023;51.280;7.148;2023-04-01T08:30:18;9.6;92.6
38221;DHT22;24023;51.280;7.148;2023-04-01T08:35:14;9.7;92.4
38221;DHT22;24023;51.280;7.148;2023-04-01T08:40:25;9.7;92.4
38221;DHT22;24023;51.280;7.148;2023-04-01T08:45:18;9.6;92.5
38221;DHT22;24023;51.280;7.148;2023-04-01T08:56:14;9.6;92.5
38221;DHT22;24023;51.280;7.148;2023-04-01T09:00:21;9.6;92.2
38221;DHT22;24023;51.280;7.148;2023-04-01T09:05:47;9.6;92.2
38221;DHT22;24023;51.280;7.148;2023-04-01T09:10:21;9.7;92.4
38221;DHT22;24023;51.280;7.148;2023-04-01T09:16:20;9.7;92.4
38221;DHT22;24023;51.280;7.148;2023-04-01T09:20:23;9.7;92.4
38221;DHT22;24023;51.280;7.148;2023-04-01T09:25:20;9.8;92.7
38221;DHT22;24023;51.280;7.148;2023-04-01T09:30:32;9.8;92.7
38221;DHT22;24023;51.280;7.148;2023-04-01T09:35:20;9.8;92.3
38221;DHT22;24023;51.280;7.148;2023-04-01T09:40:14;9.8;92.3
38221;DHT22;24023;51.280;7.148;2023-04-01T09:45:17;9.8;92.2
38221;DHT22;24023;51.280;7.148;2023-04-01T09:50:24;9.8;92.2
38221;DHT22;24023;51.280;7.148;2023-04-01T09:55:21;9.8;92.2
38221;DHT22;24023;51.280;7.148;2023-04-01T10:00:21;9.9;92.3
38221;DHT22;24023;51.280;7.148;2023-04-01T10:05:41;9.9;92.3
38221;DHT22;24023;51.280;7.148;2023-04-01T10:15:35;10.0;91.9
38221;DHT22;24023;51.280;7.148;2023-04-01T10:20:21;10.0;91.9
38221;DHT22;24023;51.280;7.148;2023-04-01T10:30:38;10.3;92.1
38221;DHT22;24023;51.280;7.148;2023-04-01T10:35:22;10.0;92.1
38221;DHT22;24023;51.280;7.148;2023-04-01T10:40:21;10.0;92.1
38221;DHT22;24023;51.280;7.148;2023-04-01T10:50:20;10.2;92.0
38221;DHT22;24023;51.280;7.148;2023-04-01T10:55:24;10.2;92.0
38221;DHT22;24023;51.280;7.148;2023-04-01T11:00:24;10.1;92.7
38221;DHT22;24023;51.280;7.148;2023-04-01T11:06:43;10.1;92.7
38221;DHT22;24023;51.280;7.148;2023-04-01T11:10:26;9.9;92.4
38221;DHT22;24023;51.280;7.148;2023-04-01T11:15:27;9.9;92.4
38221;DHT22;24023;51.280;7.148;2023-04-01T11:20:28;10.1;92.5
38221;DHT22;24023;51.280;7.148;2023-04-01T11:25:21;10.1;92.5
38221;DHT22;24023;51.280;7.148;2023-04-01T11:30:19;10.1;92.5
38221;DHT22;24023;51.280;7.148;2023-04-01T11:35:23;10.1;92.4
38221;DHT22;24023;51.280;7.148;2023-04-01T11:40:17;10.1;92.4
38221;DHT22;24023;51.280;7.148;2023-04-01T11:45:21;10.2;92.4
38221;DHT22;24023;51.280;7.148;2023-04-01T11:50:18;10.2;92.4
38221;DHT22;24023;51.280;7.148;2023-04-01T11:55:18;10.2;92.4
38221;DHT22;24023;51.280;7.148;2023-04-01T12:00:22;10.2;92.5
38221;DHT22;24023;51.280;7.148;2023-04-01T12:05:43;10.2;92.5
38221;DHT22;24023;51.280;7.148;2023-04-01T12:10:17;10.1;92.6
38221;DHT22;24023;51.280;7.148;2023-04-01T12:15:17;10.1;92.6
38221;DHT22;24023;51.280;7.148;2023-04-01T12:20:31;10.2;92.1
38221;DHT22;24023;51.280;7.148;2023-04-01T12:25:19;10.2;92.1
38221;DHT22;24023;51.280;7.148;2023-04-01T12:31:22;10.1;92.7
38221;DHT22;24023;51.280;7.148;2023-04-01T12:35:18;10.1;92.7
38221;DHT22;24023;51.280;7.148;2023-04-01T12:40:20;10.2;92.5
38221;DHT22;24023;51.280;7.148;2023-04-01T12:45:26;10.2;92.5
38221;DHT22;24023;51.280;7.148;2023-04-01T12:50:31;10.2;92.5
38221;DHT22;24023;51.280;7.148;2023-04-01T12:55:19;10.1;93.4
38221;DHT22;24023;51.280;7.148;2023-04-01T13:00:25;10.1;93.4
38221;DHT22;24023;51.280;7.148;2023-04-01T13:05:20;10.4;92.8
38221;DHT22;24023;51.280;7.148;2023-04-01T13:10:15;10.4;92.8
38221;DHT22;24023;51.280;7.148;2023-04-01T13:15:23;10.4;92.8
38221;DHT22;24023;51.280;7.148;2023-04-01T13:20:14;10.3;92.2
38221;DHT22;24023;51.280;7.148;2023-04-01T13:25:14;10.3;92.2
38221;DHT22;24023;51.280;7.148;2023-04-01T13:30:23;10.3;92.3
38221;DHT22;24023;51.280;7.148;2023-04-01T13:35:16;10.3;92.3
38221;DHT22;24023;51.280;7.148;2023-04-01T13:40:44;10.4;92.3
38221;DHT22;24023;51.280;7.148;2023-04-01T13:45:14;10.4;92.3
38221;DHT22;24023;51.280;7.148;2023-04-01T13:51:21;10.4;92.1
38221;DHT22;24023;51.280;7.148;2023-04-01T13:55:19;10.4;92.1
38221;DHT22;24023;51.280;7.148;2023-04-01T14:00:33;10.4;92.1
38221;DHT22;24023;51.280;7.148;2023-04-01T14:05:18;10.5;92.5
38221;DHT22;24023;51.280;7.148;2023-04-01T14:10:18;10.5;92.5
38221;DHT22;24023;51.280;7.148;2023-04-01T14:15:23;10.3;92.1
38221;DHT22;24023;51.280;7.148;2023-04-01T14:20:25;10.3;92.1
38221;DHT22;24023;51.280;7.148;2023-04-01T14:25:25;10.3;92.1
38221;DHT22;24023;51.280;7.148;2023-04-01T14:30:28;10.2;92.9
38221;DHT22;24023;51.280;7.148;2023-04-01T14:35:22;10.2;92.9
38221;DHT22;24023;51.280;7.148;2023-04-01T14:40:20;10.3;92.6
38221;DHT22;24023;51.280;7.148;2023-04-01T14:46:26;10.3;92.6
38221;DHT22;24023;51.280;7.148;2023-04-01T14:50:12;10.4;92.5
38221;DHT22;24023;51.280;7.148;2023-04-01T14:55:31;10.4;92.5
38221;DHT22;24023;51.280;7.148;2023-04-01T15:00:14;10.3;92.5
38221;DHT22;24023;51.280;7.148;2023-04-01T15:05:15;10.3;92.5
38221;DHT22;24023;51.280;7.148;2023-04-01T15:10:27;10.2;92.7
38221;DHT22;24023;51.280;7.148;2023-04-01T15:15:25;10.2;92.7
38221;DHT22;24023;51.280;7.148;2023-04-01T15:20:17;10.2;92.4
38221;DHT22;24023;51.280;7.148;2023-04-01T15:25:19;10.2;92.4
38221;DHT22;24023;51.280;7.148;2023-04-01T15:30:30;10.2;92.1
38221;DHT22;24023;51.280;7.148;2023-04-01T15:35:19;10.2;92.1
38221;DHT22;24023;51.280;7.148;2023-04-01T15:40:19;10.3;92.1
38221;DHT22;24023;51.280;7.148;2023-04-01T15:45:18;10.3;92.1
38221;DHT22;24023;51.280;7.148;2023-04-01T15:51:11;10.3;92.4
38221;DHT22;24023;51.280;7.148;2023-04-01T15:55:17;10.3;92.4
38221;DHT22;24023;51.280;7.148;2023-04-01T16:00:23;10.3;92.4
38221;DHT22;24023;51.280;7.148;2023-04-01T16:05:16;10.3;92.0
38221;DHT22;24023;51.280;7.148;2023-04-01T16:10:19;10.3;92.0
38221;DHT22;24023;51.280;7.148;2023-04-01T16:15:16;10.3;92.6
38221;DHT22;24023;51.280;7.148;2023-04-01T16:20:17;10.3;92.6
38221;DHT22;24023;51.280;7.148;2023-04-01T16:25:19;10.3;92.2
38221;DHT22;24023;51.280;7.148;2023-04-01T16:30:25;10.3;92.2
38221;DHT22;24023;51.280;7.148;2023-04-01T16:35:30;10.3;92.2
38221;DHT22;24023;51.280;7.148;2023-04-01T16:40:20;10.3;92.2
38221;DHT22;24023;51.280;7.148;2023-04-01T16:45:33;10.3;92.2
38221;DHT22;24023;51.280;7.148;2023-04-01T16:55:15;10.2;92.3
38221;DHT22;24023;51.280;7.148;2023-04-01T17:00:18;10.2;92.3
38221;DHT22;24023;51.280;7.148;2023-04-01T17:05:11;10.1;92.5
38221;DHT22;24023;51.280;7.148;2023-04-01T17:10:25;10.1;92.5
38221;DHT22;24023;51.280;7.148;2023-04-01T17:15:17;10.3;92.2
38221;DHT22;24023;51.280;7.148;2023-04-01T17:20:19;10.3;92.2
38221;DHT22;24023;51.280;7.148;2023-04-01T17:25:20;10.3;92.2
38221;DHT22;24023;51.280;7.148;2023-04-01T17:30:18;10.2;92.1
38221;DHT22;24023;51.280;7.148;2023-04-01T17:35:11;10.2;92.1
38221;DHT22;24023;51.280;7.148;2023-04-01T17:40:20;10.1;91.9
38221;DHT22;24023;51.280;7.148;2023-04-01T17:45:16;10.1;91.9
38221;DHT22;24023;51.280;7.148;2023-04-01T17:50:22;10.1;91.9
38221;DHT22;24023;51.280;7.148;2023-04-01T17:55:32;10.3;92.0
38221;DHT22;24023;51.280;7.148;2023-04-01T18:00:19;10.3;92.0
38221;DHT22;24023;51.280;7.148;2023-04-01T18:06:14;10.1;92.1
38221;DHT22;24023;51.280;7.148;2023-04-01T18:10:17;10.1;92.1
38221;DHT22;24023;51.280;7.148;2023-04-01T18:15:18;10.1;92.0
38221;DHT22;24023;51.280;7.148;2023-04-01T18:20:22;10.1;92.0
38221;DHT22;24023;51.280;7.148;2023-04-01T18:25:16;10.1;92.0
38221;DHT22;24023;51.280;7.148;2023-04-01T18:30:14;10.2;92.2
38221;DHT22;24023;51.280;7.148;2023-04-01T18:35:29;10.2;92.2
38221;DHT22;24023;51.280;7.148;2023-04-01T18:40:16;10.1;92.3
38221;DHT22;24023;51.280;7.148;2023-04-01T18:45:20;10.1;92.3
38221;DHT22;24023;51.280;7.148;2023-04-01T18:50:15;10.1;92.3
38221;DHT22;24023;51.280;7.148;2023-04-01T18:55:40;10.1;92.1
38221;DHT22;24023;51.280;7.148;2023-04-01T19:00:17;10.1;92.1
38221;DHT22;24023;51.280;7.148;2023-04-01T19:05:11;10.1;92.2
38221;DHT22;24023;51.280;7.148;2023-04-01T19:10:34;10.1;92.2
38221;DHT22;24023;51.280;7.148;2023-04-01T19:15:19;10.1;92.2
38221;DHT22;24023;51.280;7.148;2023-04-01T19:20:17;10.0;92.2
38221;DHT22;24023;51.280;7.148;2023-04-01T19:25:19;10.0;92.2
38221;DHT22;24023;51.280;7.148;2023-04-01T19:30:21;10.0;92.3
38221;DHT22;24023;51.280;7.148;2023-04-01T19:35:17;10.0;92.3
38221;DHT22;24023;51.280;7.148;2023-04-01T19:40:20;10.0;92.3
38221;DHT22;24023;51.280;7.148;2023-04-01T19:45:23;10.0;92.0
38221;DHT22;24023;51.280;7.148;2023-04-01T19:50:20;10.0;92.0
38221;DHT22;24023;51.280;7.148;2023-04-01T19:55:17;9.9;92.0
38221;DHT22;24023;51.280;7.148;2023-04-01T20:00:17;9.9;92.0
38221;DHT22;24023;51.280;7.148;2023-04-01T20:05:31;10.0;92.1
38221;DHT22;24023;51.280;7.148;2023-04-01T20:10:09;10.0;92.1
38221;DHT22;24023;51.280;7.148;2023-04-01T20:15:22;10.0;92.1
38221;DHT22;24023;51.280;7.148;2023-04-01T20:20:19;10.0;92.0
38221;DHT22;24023;51.280;7.148;2023-04-01T20:25:12;10.0;92.0
38221;DHT22;24023;51.280;7.148;2023-04-01T20:30:24;10.0;92.0
38221;DHT22;24023;51.280;7.148;2023-04-01T20:35:23;10.0;92.0
38221;DHT22;24023;51.280;7.148;2023-04-01T20:40:25;10.0;92.0
38221;DHT22;24023;51.280;7.148;2023-04-01T20:45:27;9.9;92.2
38221;DHT22;24023;51.280;7.148;2023-04-01T20:50:18;9.9;92.2
38221;DHT22;24023;51.280;7.148;2023-04-01T20:55:21;10.0;91.8
38221;DHT22;24023;51.280;7.148;2023-04-01T21:00:24;10.0;91.8
38221;DHT22;24023;51.280;7.148;2023-04-01T21:05:27;10.0;91.8
38221;DHT22;24023;51.280;7.148;2023-04-01T21:10:19;10.1;91.6
38221;DHT22;24023;51.280;7.148;2023-04-01T21:15:18;10.1;91.6
38221;DHT22;24023;51.280;7.148;2023-04-01T21:20:26;9.9;91.7
38221;DHT22;24023;51.280;7.148;2023-04-01T21:25:21;9.9;91.7
38221;DHT22;24023;51.280;7.148;2023-04-01T21:30:22;9.9;91.5
38221;DHT22;24023;51.280;7.148;2023-04-01T21:35:19;9.9;91.5
38221;DHT22;24023;51.280;7.148;2023-04-01T21:40:35;10.0;91.4
38221;DHT22;24023;51.280;7.148;2023-04-01T21:45:20;10.0;91.4
38221;DHT22;24023;51.280;7.148;2023-04-01T21:50:43;9.8;91.9
38221;DHT22;24023;51.280;7.148;2023-04-01T21:55:42;9.8;91.9
38221;DHT22;24023;51.280;7.148;2023-04-01T22:00:21;9.6;91.8
38221;DHT22;24023;51.280;7.148;2023-04-01T22:05:10;9.6;91.8
38221;DHT22;24023;51.280;7.148;2023-04-01T22:10:15;9.8;91.7
38221;DHT22;24023;51.280;7.148;2023-04-01T22:15:14;9.8;91.7
38221;DHT22;24023;51.280;7.148;2023-04-01T22:20:20;9.8;91.7
38221;DHT22;24023;51.280;7.148;2023-04-01T22:25:10;9.7;91.1
38221;DHT22;24023;51.280;7.148;2023-04-01T22:30:16;9.7;91.1
38221;DHT22;24023;51.280;7.148;2023-04-01T22:35:17;9.4;91.1
38221;DHT22;24023;51.280;7.148;2023-04-01T22:40:19;9.4;91.1
38221;DHT22;24023;51.280;7.148;2023-04-01T22:45:30;9.4;91.1
38221;DHT22;24023;51.280;7.148;2023-04-01T22:50:15;9.4;90.6
38221;DHT22;24023;51.280;7.148;2023-04-01T22:55:12;9.4;90.6
38221;DHT22;24023;51.280;7.148;2023-04-01T23:00:15;9.0;90.7
38221;DHT22;24023;51.280;7.148;2023-04-01T23:05:11;9.0;90.7
38221;DHT22;24023;51.280;7.148;2023-04-01T23:10:18;9.0;90.7
38221;DHT22;24023;51.280;7.148;2023-04-01T23:15:12;9.0;90.7
38221;DHT22;24023;51.280;7.148;2023-04-01T23:20:18;9.0;90.7
38221;DHT22;24023;51.280;7.148;2023-04-01T23:25:18;8.9;90.2
38221;DHT22;24023;51.280;7.148;2023-04-01T23:30:46;8.9;90.2
38221;DHT22;24023;51.280;7.148;2023-04-01T23:35:15;8.7;90.2
38221;DHT22;24023;51.280;7.148;2023-04-01T23:40:12;8.7;90.2
38221;DHT22;24023;51.280;7.148;2023-04-01T23:45:14;8.7;90.2
38221;DHT22;24023;51.280;7.148;2023-04-01T23:50:11;8.5;90.3
38221;DHT22;24023;51.280;7.148;2023-04-01T23:55:13;8.5;90.3
